Time;durP1;ratioP1;P1;durP2;ratioP2;P2;SDS_P1;SDS_P2;PMS_P1;PMS_P2;Temp;Humidity;BMP_temperature;BMP_pressure;BME280_temperature;BME280_humidity;BME280_pressure;Samples;Min_cycle;Max_cycle;Signal;HPM_P1;HPM_P2
2022/03/08 00:00:15;;;;;;;10.30;9.43;;;3.80;25.50;;;;;;20727;6845;117662;-85
2022/03/08 00:02:40;;;;;;;10.07;9.30;;;3.60;25.50;;;;;;20721;6845;117135;-86
2022/03/08 00:05:06;;;;;;;9.50;8.63;;;3.30;25.70;;;;;;20703;6843;117301;-86
2022/03/08 00:07:32;;;;;;;12.17;11.27;;;3.00;25.90;;;;;;20522;6844;290211;-85
2022/03/08 00:09:57;;;;;;;11.10;10.10;;;3.10;26.10;;;;;;20738;6844;122009;-86
2022/03/08 00:12:23;;;;;;;11.98;10.98;;;3.00;26.00;;;;;;20530;6845;278382;-86
2022/03/08 00:14:48;;;;;;;10.57;9.50;;;3.10;26.10;;;;;;20726;6845;116886;-85
2022/03/08 00:17:16;;;;;;;9.38;8.65;;;2.80;26.10;;;;;;20745;6845;117326;-85
2022/03/08 00:19:41;;;;;;;12.40;11.40;;;2.80;26.10;;;;;;20528;6845;308043;-86
2022/03/08 00:22:07;;;;;;;10.03;9.27;;;2.90;26.40;;;;;;20745;6845;117573;-86
2022/03/08 00:24:34;;;;;;;10.45;9.52;;;2.90;26.30;;;;;;20738;6845;117095;-86
2022/03/08 00:26:59;;;;;;;12.90;11.90;;;2.70;26.30;;;;;;20504;6845;299768;-85
2022/03/08 00:29:25;;;;;;;12.40;11.40;;;2.70;26.80;;;;;;20516;6845;318041;-85
2022/03/08 00:31:50;;;;;;;12.13;11.00;;;3.00;26.70;;;;;;20731;6845;117740;-83
2022/03/08 00:34:16;;;;;;;12.20;11.30;;;2.90;26.50;;;;;;20516;6845;306772;-88
2022/03/08 00:36:42;;;;;;;12.73;11.73;;;3.20;26.40;;;;;;20518;6845;307143;-84
2022/03/08 00:39:08;;;;;;;11.95;11.15;;;3.20;26.40;;;;;;20345;6845;312716;-87
2022/03/08 00:41:33;;;;;;;12.30;11.40;;;3.40;26.30;;;;;;20520;6845;307295;-85
2022/03/08 00:43:59;;;;;;;11.52;9.85;;;3.50;26.10;;;;;;20726;6845;117278;-83
2022/03/08 00:46:27;;;;;;;11.37;9.77;;;3.30;26.10;;;;;;20712;6845;116614;-88
2022/03/08 00:48:55;;;;;;;11.13;10.13;;;2.90;26.30;;;;;;20691;6845;117068;-84
2022/03/08 00:51:19;;;;;;;12.82;11.73;;;2.60;26.70;;;;;;20494;6845;279200;-86
2022/03/08 00:53:44;;;;;;;10.98;10.00;;;2.70;27.00;;;;;;20691;6845;117925;-86
2022/03/08 00:56:10;;;;;;;12.48;11.57;;;2.70;26.80;;;;;;20489;6845;307622;-85
2022/03/08 00:58:36;;;;;;;11.30;10.23;;;2.70;26.90;;;;;;20705;6845;117215;-85
2022/03/08 01:01:01;;;;;;;12.43;11.43;;;2.70;26.90;;;;;;20436;6845;401438;-86
2022/03/08 01:03:26;;;;;;;12.63;11.63;;;2.70;27.00;;;;;;20487;6845;285480;-85
2022/03/08 01:05:54;;;;;;;11.27;10.37;;;3.00;27.00;;;;;;20713;6845;117246;-85
2022/03/08 01:08:19;;;;;;;10.27;9.57;;;2.90;26.90;;;;;;20710;6845;117676;-85
2022/03/08 01:10:45;;;;;;;10.87;9.97;;;2.60;27.00;;;;;;20690;6845;124964;-86
2022/03/08 01:13:12;;;;;;;11.20;10.30;;;2.30;27.20;;;;;;20708;6845;120091;-86
2022/03/08 01:15:37;;;;;;;13.00;12.07;;;2.10;27.50;;;;;;20499;6843;313200;-85
2022/03/08 01:18:04;;;;;;;11.38;10.45;;;2.10;28.30;;;;;;20711;6844;117250;-89
2022/03/08 01:20:29;;;;;;;12.23;11.13;;;2.10;28.10;;;;;;20713;6844;118486;-85
2022/03/08 01:22:57;;;;;;;13.63;12.53;;;2.00;28.70;;;;;;20488;6845;278888;-85
2022/03/08 01:25:23;;;;;;;12.73;11.63;;;2.00;28.70;;;;;;20749;6845;119148;-83
2022/03/08 01:28:08;;;;;;;11.40;10.40;;;2.00;28.50;;;;;;20826;6845;68081;-86
2022/03/08 01:30:46;;;;;;;11.43;10.43;;;1.60;28.70;;;;;;20758;6765;117605;-86
2022/03/08 01:33:21;;;;;;;11.27;10.27;;;1.40;28.70;;;;;;20880;6739;117597;-84
2022/03/08 01:35:56;;;;;;;13.88;12.73;;;1.40;28.70;;;;;;20694;6724;339635;-86
2022/03/08 01:38:32;;;;;;;14.10;12.90;;;1.60;29.40;;;;;;20422;6762;308937;-85
2022/03/08 01:41:08;;;;;;;14.47;13.37;;;2.00;29.40;;;;;;20575;6761;277417;-85
2022/03/08 01:43:45;;;;;;;14.63;13.43;;;2.30;29.10;;;;;;20586;6761;284925;-85
2022/03/08 01:46:20;;;;;;;14.20;13.17;;;2.50;28.80;;;;;;20622;6747;282274;-85
2022/03/08 01:48:57;;;;;;;13.90;12.80;;;2.60;28.60;;;;;;20627;6747;305716;-84
2022/03/08 01:51:32;;;;;;;11.63;10.73;;;2.70;28.50;;;;;;20862;6752;118017;-85
2022/03/08 01:54:08;;;;;;;12.00;10.97;;;2.50;28.50;;;;;;20813;6757;116437;-85
2022/03/08 01:56:43;;;;;;;11.43;10.37;;;2.00;28.60;;;;;;20769;6753;130230;-89
2022/03/08 01:59:20;;;;;;;13.57;12.53;;;1.80;29.40;;;;;;20626;6747;310882;-86
2022/03/08 02:01:55;;;;;;;14.10;12.90;;;1.80;29.40;;;;;;20583;6762;324761;-86
2022/03/08 02:04:31;;;;;;;12.23;11.23;;;2.10;29.20;;;;;;20730;6780;117829;-89
2022/03/08 02:07:08;;;;;;;12.13;10.97;;;2.00;29.00;;;;;;20752;6765;117136;-83
2022/03/08 02:09:43;;;;;;;11.53;10.43;;;1.70;29.10;;;;;;20927;6754;116222;-84
2022/03/08 02:12:19;;;;;;;14.17;12.93;;;1.50;29.30;;;;;;20694;6759;305088;-90
2022/03/08 02:14:55;;;;;;;11.77;10.67;;;1.60;29.70;;;;;;20849;6769;127011;-82
2022/03/08 02:17:40;;;;;;;;;;;;;;;;;;;;;
2022/03/08 02:20:08;;;;;;;13.57;12.43;;;1.60;29.80;;;;;;20613;6750;333348;-85
2022/03/08 02:22:44;;;;;;;12.27;11.27;;;1.50;29.50;;;;;;20771;6813;117034;-84
2022/03/08 02:25:20;;;;;;;14.60;13.50;;;1.60;29.60;;;;;;20620;6750;335137;-84
2022/03/08 02:27:56;;;;;;;14.70;13.50;;;1.70;29.60;;;;;;20549;6735;307233;-83
2022/03/08 02:30:32;;;;;;;14.67;13.50;;;2.20;29.20;;;;;;20685;6734;277426;-84
2022/03/08 02:33:08;;;;;;;13.13;11.93;;;2.20;29.20;;;;;;20788;6759;119707;-82
2022/03/08 02:35:46;;;;;;;12.60;11.30;;;2.00;29.00;;;;;;20804;6758;117115;-84
2022/03/08 02:38:21;;;;;;;13.60;12.57;;;1.60;29.20;;;;;;20379;6791;308801;-85
2022/03/08 02:40:58;;;;;;;13.80;12.70;;;1.90;29.70;;;;;;20542;6773;278572;-85
2022/03/08 02:43:33;;;;;;;13.10;12.10;;;1.90;29.20;;;;;;20588;6774;341552;-85
2022/03/08 02:46:09;;;;;;;13.47;12.47;;;2.20;29.00;;;;;;20594;6759;305681;-85
2022/03/08 02:48:45;;;;;;;11.87;10.87;;;2.30;28.70;;;;;;20783;6759;120201;-84
2022/03/08 02:51:20;;;;;;;11.20;10.10;;;2.10;28.70;;;;;;20744;6777;117309;-84
2022/03/08 02:53:56;;;;;;;11.17;10.03;;;1.70;28.90;;;;;;20775;6750;117241;-85
2022/03/08 02:56:32;;;;;;;11.60;10.70;;;1.50;29.40;;;;;;20588;6755;278217;-84
2022/03/08 02:59:09;;;;;;;9.87;9.10;;;1.50;29.40;;;;;;20755;6762;125985;-85
2022/03/08 03:01:44;;;;;;;10.93;10.17;;;1.50;29.20;;;;;;20585;6751;302828;-85
2022/03/08 03:04:20;;;;;;;10.73;9.93;;;1.60;29.00;;;;;;20577;6764;306771;-84
2022/03/08 03:06:55;;;;;;;10.33;9.63;;;2.00;29.00;;;;;;20533;6766;309285;-84
2022/03/08 03:09:31;;;;;;;10.93;10.13;;;2.20;28.00;;;;;;20629;6744;306317;-85
2022/03/08 03:12:07;;;;;;;10.23;9.33;;;2.50;27.70;;;;;;20803;6760;117497;-85
2022/03/08 03:14:44;;;;;;;9.53;8.63;;;2.30;27.80;;;;;;20722;6763;126983;-87
2022/03/08 03:17:19;;;;;;;10.27;9.33;;;1.90;28.10;;;;;;20827;6730;117694;-84
2022/03/08 03:19:55;;;;;;;9.97;9.17;;;1.60;28.50;;;;;;20827;6742;117870;-85
2022/03/08 03:22:30;;;;;;;13.07;12.07;;;1.40;28.80;;;;;;20640;6797;305621;-85
2022/03/08 03:25:07;;;;;;;13.00;12.00;;;1.80;29.30;;;;;;20571;6760;277656;-85
2022/03/08 03:27:43;;;;;;;12.73;11.83;;;1.80;29.30;;;;;;20398;6755;308275;-85
2022/03/08 03:30:18;;;;;;;10.63;9.73;;;2.00;29.00;;;;;;20762;6812;117903;-84
2022/03/08 03:32:54;;;;;;;12.00;11.10;;;1.80;29.30;;;;;;20602;6748;309656;-84
2022/03/08 03:35:30;;;;;;;12.30;11.40;;;1.80;29.00;;;;;;20555;6770;341270;-85
2022/03/08 03:38:06;;;;;;;11.87;10.97;;;2.00;28.80;;;;;;20498;6740;308943;-85
2022/03/08 03:40:42;;;;;;;10.97;10.17;;;2.30;28.10;;;;;;20558;6772;304733;-85
2022/03/08 03:43:19;;;;;;;10.50;9.60;;;2.30;28.10;;;;;;20814;6754;117545;-84
2022/03/08 03:46:04;;;;;;;;;;;;;;;;;;;;;
2022/03/08 03:48:30;;;;;;;8.90;8.13;;;1.70;28.40;;;;;;20883;6723;118443;-85
2022/03/08 03:51:07;;;;;;;9.90;8.90;;;1.40;28.70;;;;;;20804;6742;116515;-85
2022/03/08 03:53:45;;;;;;;11.97;10.97;;;1.20;29.00;;;;;;20570;6766;278220;-85
2022/03/08 03:56:22;;;;;;;10.50;9.80;;;1.30;29.30;;;;;;20498;6836;277616;-85
2022/03/08 03:58:58;;;;;;;11.38;10.57;;;1.60;29.00;;;;;;20614;6728;304349;-85
2022/03/08 04:01:33;;;;;;;8.37;7.77;;;1.90;28.50;;;;;;20869;6743;117950;-85
2022/03/08 04:04:09;;;;;;;9.93;9.23;;;1.80;28.30;;;;;;20642;6742;282229;-84
2022/03/08 04:06:45;;;;;;;9.93;9.13;;;1.80;28.30;;;;;;20602;6783;307625;-84
2022/03/08 04:09:22;;;;;;;7.90;7.30;;;2.00;28.00;;;;;;20910;6721;117388;-85
2022/03/08 04:11:58;;;;;;;7.33;6.73;;;1.90;27.90;;;;;;20877;6736;116860;-85
2022/03/08 04:14:33;;;;;;;8.70;8.10;;;1.60;28.10;;;;;;20579;6766;278214;-84
2022/03/08 04:17:10;;;;;;;8.63;7.00;;;1.70;28.20;;;;;;20847;6751;118370;-83
2022/03/08 04:19:46;;;;;;;8.70;8.10;;;1.70;28.10;;;;;;20808;6721;339368;-84
2022/03/08 04:22:21;;;;;;;8.00;7.40;;;1.80;28.20;;;;;;20970;6721;121884;-88
2022/03/08 04:24:57;;;;;;;9.00;8.40;;;1.80;28.10;;;;;;20715;6721;274594;-85
2022/03/08 04:27:33;;;;;;;7.97;7.47;;;1.90;28.00;;;;;;20643;6721;282573;-84
2022/03/08 04:30:08;;;;;;;8.30;7.80;;;2.20;27.80;;;;;;20723;6718;309020;-85
2022/03/08 04:32:44;;;;;;;8.63;8.10;;;2.40;27.60;;;;;;20604;6800;306200;-86
2022/03/08 04:35:20;;;;;;;8.70;8.10;;;2.70;27.90;;;;;;20634;6785;275866;-87
2022/03/08 04:37:57;;;;;;;8.63;7.90;;;2.70;27.30;;;;;;20728;6751;116934;-88
2022/03/08 04:40:32;;;;;;;7.80;7.20;;;2.50;27.30;;;;;;20910;6734;117231;-87
2022/03/08 04:43:08;;;;;;;9.10;8.40;;;2.10;27.50;;;;;;20686;6715;316899;-87
2022/03/08 04:45:45;;;;;;;9.40;8.60;;;2.10;27.90;;;;;;20785;6700;334394;-87
2022/03/08 04:48:25;;;;;;;8.20;7.60;;;2.30;27.90;;;;;;20833;6700;116828;-91
2022/03/08 04:51:03;;;;;;;9.32;8.68;;;2.10;27.70;;;;;;20697;6712;310070;-91
2022/03/08 04:53:39;;;;;;;7.80;7.20;;;2.00;27.90;;;;;;20367;6962;70402;-89
2022/03/08 04:56:15;;;;;;;8.70;8.13;;;2.00;27.80;;;;;;20208;6741;303454;-93
2022/03/08 04:58:52;;;;;;;8.33;7.70;;;2.00;28.10;;;;;;20583;6711;118332;-92
2022/03/08 05:01:36;;;;;;;;;;;;;;;;;;;;;
2022/03/08 05:04:02;;;;;;;8.30;7.70;;;2.00;28.40;;;;;;20404;6700;278525;-90
2022/03/08 05:06:39;;;;;;;8.40;7.78;;;2.40;28.30;;;;;;20410;6738;309583;-91
2022/03/08 05:09:26;;;;;;;;;;;;;;;;;;;;;
2022/03/08 05:11:53;;;;;;;8.48;7.85;;;2.20;28.10;;;;;;20510;6749;276818;-90
2022/03/08 05:14:39;;;;;;;8.03;7.53;;;2.40;28.70;;;;;;20586;6749;275949;-92
2022/03/08 05:17:07;;;;;;;6.37;5.97;;;2.40;28.60;;;;;;20821;6749;116867;-91
2022/03/08 05:19:42;;;;;;;6.77;6.17;;;2.30;28.50;;;;;;20631;6824;115887;-89
2022/03/08 05:22:18;;;;;;;7.60;6.00;;;2.00;28.70;;;;;;20774;6743;118883;-90
2022/03/08 05:25:03;;;;;;;6.77;6.17;;;1.50;28.90;;;;;;20823;6750;116742;-92
2022/03/08 05:27:30;;;;;;;6.30;5.90;;;1.50;28.90;;;;;;20825;6774;116087;-92
2022/03/08 05:30:16;;;;;;;;;;;;;;;;;;;;;
2022/03/08 05:32:43;;;;;;;8.07;7.53;;;1.50;29.70;;;;;;20369;6755;277551;-89
2022/03/08 05:35:19;;;;;;;6.80;6.20;;;1.80;29.40;;;;;;20858;6727;120632;-92
2022/03/08 05:37:56;;;;;;;6.53;6.10;;;1.80;29.40;;;;;;20674;6771;116657;-86
2022/03/08 05:40:33;;;;;;;7.17;6.57;;;1.60;29.30;;;;;;20813;6760;116950;-90
2022/03/08 05:43:10;;;;;;;6.27;5.87;;;1.40;29.60;;;;;;20857;6736;116942;-88
2022/03/08 05:45:46;;;;;;;12.23;11.43;;;1.30;29.90;;;;;;20965;6721;116624;-88
2022/03/08 05:48:22;;;;;;;8.57;6.50;;;1.20;30.00;;;;;;20808;6726;117616;-89
2022/03/08 05:51:10;;;;;;;;;;;;;;;;;;;;;
2022/03/08 05:53:36;;;;;;;7.73;7.20;;;1.40;31.20;;;;;;20884;6742;116831;-89
2022/03/08 05:56:18;;;;;;;7.00;6.50;;;1.40;30.70;;;;;;20730;6805;117768;-90
2022/03/08 05:58:56;;;;;;;8.67;8.07;;;1.40;30.70;;;;;;20473;6792;306521;-94
2022/03/08 06:01:41;;;;;;;;;;;;;;;;;;;;;
2022/03/08 06:04:08;;;;;;;7.47;6.97;;;1.60;31.00;;;;;;20803;6737;117379;-93
2022/03/08 06:31:19;;;;;;;9.63;9.03;;;3.80;29.50;;;;;;21258;6514;301994;-91
2022/03/08 06:33:44;;;;;;;8.40;7.73;;;3.90;29.30;;;;;;20945;6806;67657;-86
2022/03/08 06:36:10;;;;;;;8.32;7.65;;;3.80;29.30;;;;;;20926;6801;115705;-87
2022/03/08 06:38:36;;;;;;;8.90;8.07;;;3.50;29.50;;;;;;20775;6851;116892;-86
2022/03/08 06:41:01;;;;;;;7.60;6.93;;;3.30;29.90;;;;;;20762;6851;116786;-86
2022/03/08 06:43:27;;;;;;;8.10;7.47;;;3.20;30.00;;;;;;20779;6851;116316;-87
2022/03/08 06:45:52;;;;;;;9.63;8.93;;;3.10;30.00;;;;;;20488;6851;339108;-90
2022/03/08 06:48:18;;;;;;;14.80;13.57;;;3.30;30.20;;;;;;20687;6842;120335;-89
2022/03/08 06:50:43;;;;;;;8.05;7.50;;;3.40;30.00;;;;;;20643;6862;118177;-90
2022/03/08 06:53:09;;;;;;;8.23;7.57;;;3.30;29.90;;;;;;20639;6873;117160;-87
2022/03/08 06:55:35;;;;;;;7.75;7.15;;;3.30;30.00;;;;;;20639;6873;116739;-90
2022/03/08 06:58:00;;;;;;;6.93;6.50;;;3.30;30.00;;;;;;20645;6873;117611;-92
2022/03/08 07:00:26;;;;;;;8.27;7.67;;;3.20;30.00;;;;;;20635;6873;117720;-88
2022/03/08 07:02:51;;;;;;;7.75;7.15;;;3.30;30.20;;;;;;20654;6861;118829;-86
2022/03/08 07:05:18;;;;;;;6.95;6.50;;;3.30;30.20;;;;;;20673;6863;117411;-86
2022/03/08 07:07:43;;;;;;;8.03;7.33;;;3.30;30.10;;;;;;20598;6887;117361;-87
2022/03/08 07:10:10;;;;;;;10.43;9.65;;;3.30;30.20;;;;;;20437;6863;278924;-88
2022/03/08 07:12:35;;;;;;;8.40;7.90;;;3.70;30.40;;;;;;20655;6872;117947;-86
2022/03/08 07:15:01;;;;;;;7.90;7.30;;;4.00;30.30;;;;;;20664;6857;140225;-92
2022/03/08 07:17:26;;;;;;;8.73;8.13;;;4.10;30.10;;;;;;20452;6869;309660;-86
2022/03/08 07:19:53;;;;;;;9.10;8.40;;;4.40;30.00;;;;;;20471;6875;307702;-86
2022/03/08 07:22:19;;;;;;;7.70;7.20;;;4.90;29.60;;;;;;20672;6860;117588;-86
2022/03/08 07:24:44;;;;;;;8.65;8.05;;;5.10;29.40;;;;;;20448;6860;278734;-90
2022/03/08 07:27:10;;;;;;;9.50;8.80;;;5.30;29.10;;;;;;20374;6916;318352;-85
2022/03/08 07:29:37;;;;;;;7.97;7.37;;;5.70;28.60;;;;;;20628;6875;116593;-85
2022/03/08 07:32:04;;;;;;;9.00;8.30;;;5.70;28.40;;;;;;20520;6864;320449;-85
2022/03/08 07:34:29;;;;;;;8.97;8.37;;;5.80;28.20;;;;;;20528;6861;310003;-85
2022/03/08 07:36:55;;;;;;;10.63;9.83;;;6.10;28.20;;;;;;20530;6861;337189;-86
2022/03/08 07:39:21;;;;;;;9.25;8.55;;;6.40;27.80;;;;;;20755;6861;78825;-86
2022/03/08 07:41:46;;;;;;;8.70;8.10;;;6.30;27.70;;;;;;20538;6859;306545;-85
2022/03/08 07:44:15;;;;;;;9.57;8.77;;;6.40;27.80;;;;;;20566;6860;307296;-84
2022/03/08 07:46:41;;;;;;;7.57;7.07;;;6.70;27.80;;;;;;20486;6860;116636;-85
2022/03/08 07:49:06;;;;;;;8.70;8.13;;;6.80;27.80;;;;;;20677;6860;119764;-84
2022/03/08 07:51:32;;;;;;;7.00;6.50;;;6.60;27.80;;;;;;20743;6861;122742;-84
2022/03/08 07:53:59;;;;;;;8.43;7.80;;;6.50;28.20;;;;;;20682;6861;117018;-86
2022/03/08 07:56:26;;;;;;;21.33;14.50;;;6.40;28.20;;;;;;20677;6861;117317;-85
2022/03/08 07:58:52;;;;;;;12.10;11.10;;;6.50;28.30;;;;;;20450;6861;287318;-86
2022/03/08 08:01:17;;;;;;;8.80;8.10;;;6.70;28.10;;;;;;20674;6861;118194;-86
2022/03/08 08:03:43;;;;;;;7.07;6.65;;;6.90;27.90;;;;;;20682;6861;116647;-85
2022/03/08 08:06:10;;;;;;;8.03;7.53;;;6.90;27.90;;;;;;20474;6861;308628;-86
2022/03/08 08:08:35;;;;;;;7.57;7.07;;;7.10;27.20;;;;;;20662;6861;117720;-86
2022/03/08 08:11:01;;;;;;;9.73;8.80;;;7.20;27.20;;;;;;20678;6861;117342;-85
2022/03/08 08:13:27;;;;;;;9.65;8.77;;;7.40;26.50;;;;;;20464;6861;308076;-84
2022/03/08 08:15:56;;;;;;;8.47;7.93;;;7.40;26.50;;;;;;20469;6861;280606;-85
2022/03/08 08:18:25;;;;;;;8.83;8.23;;;8.00;26.10;;;;;;20451;6859;308575;-84
2022/03/08 08:20:52;;;;;;;10.10;9.30;;;8.00;26.10;;;;;;20660;6859;118159;-85
2022/03/08 08:23:18;;;;;;;12.70;9.87;;;8.00;26.30;;;;;;20707;6859;67799;-84
2022/03/08 08:25:43;;;;;;;9.07;8.10;;;7.90;26.50;;;;;;20692;6859;117571;-86
2022/03/08 08:28:09;;;;;;;14.90;10.47;;;7.80;26.70;;;;;;20713;6846;117137;-84
2022/03/08 08:30:35;;;;;;;7.78;7.28;;;7.80;26.50;;;;;;20475;6846;279992;-84
2022/03/08 08:33:00;;;;;;;8.48;7.78;;;7.90;25.50;;;;;;20417;6878;332989;-84
2022/03/08 08:35:26;;;;;;;10.85;9.85;;;8.20;25.20;;;;;;20678;6860;117337;-85
2022/03/08 08:37:53;;;;;;;9.05;8.27;;;8.20;25.20;;;;;;20493;6849;338408;-85
2022/03/08 08:40:20;;;;;;;8.32;7.62;;;8.40;25.20;;;;;;20410;6878;337184;-83
2022/03/08 08:42:46;;;;;;;7.03;6.53;;;8.70;25.00;;;;;;20464;6860;306963;-86
2022/03/08 08:45:13;;;;;;;7.90;7.30;;;8.90;24.40;;;;;;20812;6849;72016;-83
2022/03/08 08:47:41;;;;;;;8.80;8.10;;;8.90;24.40;;;;;;20594;6642;308786;-93
2022/03/08 08:50:17;;;;;;;8.07;7.27;;;8.90;24.40;;;;;;20818;6785;121262;-92
2022/03/08 08:52:54;;;;;;;6.77;6.17;;;8.80;24.30;;;;;;20639;6773;120380;-94
2022/03/08 08:55:44;;;;;;;;;;;;;;;;;;;;;
2022/03/08 08:58:11;;;;;;;9.50;6.43;;;8.60;24.40;;;;;;20505;6775;308230;-94
2022/03/08 09:01:07;;;;;;;6.60;6.10;;;8.90;24.30;;;;;;20488;6752;70477;-93
2022/03/08 09:03:24;;;;;;;6.33;5.83;;;9.00;24.40;;;;;;20807;6753;117147;-85
2022/03/08 09:05:59;;;;;;;6.60;6.13;;;8.80;24.50;;;;;;20882;6756;116500;-85
2022/03/08 09:08:48;;;;;;;;;;;;;;;;;;;;;
2022/03/08 09:11:25;;;;;;;7.00;6.50;;;8.50;24.60;;;;;;20242;6755;312075;-94
2022/03/08 09:13:59;;;;;;;;;;;;;;;;;;;;;
2022/03/08 09:16:45;;;;;;;;;;;;;;;;;;;;;
2022/03/08 09:36:28;;;;;;;5.53;5.03;;;9.10;24.40;;;;;;21040;6532;90244;-88
2022/03/08 09:38:54;;;;;;;6.70;6.20;;;9.00;24.50;;;;;;20422;6871;277878;-92
2022/03/08 09:41:19;;;;;;;6.62;6.00;;;9.30;24.00;;;;;;20600;6888;117798;-90
2022/03/08 09:43:45;;;;;;;6.30;5.90;;;9.50;24.00;;;;;;20336;6898;310803;-91
2022/03/08 09:46:11;;;;;;;6.40;5.90;;;9.70;23.40;;;;;;20617;6872;117119;-91
2022/03/08 09:48:36;;;;;;;6.25;5.82;;;9.80;23.50;;;;;;20605;6887;117689;-92
2022/03/08 09:51:02;;;;;;;5.87;5.47;;;9.80;23.60;;;;;;20520;6898;117967;-90
2022/03/08 09:53:30;;;;;;;5.97;5.57;;;9.70;23.70;;;;;;20556;6895;117971;-92
2022/03/08 09:55:56;;;;;;;5.63;5.30;;;9.70;23.90;;;;;;20573;6892;118035;-89
2022/03/08 09:58:21;;;;;;;6.13;5.67;;;9.70;24.50;;;;;;20583;6878;117677;-90
2022/03/08 10:00:48;;;;;;;6.23;5.73;;;9.70;24.00;;;;;;20600;6878;121994;-90
2022/03/08 10:03:14;;;;;;;6.18;5.70;;;9.70;23.80;;;;;;20369;6893;309845;-90
2022/03/08 10:05:40;;;;;;;7.83;7.37;;;10.40;21.90;;;;;;20367;6892;315512;-91
2022/03/08 10:08:22;;;;;;;5.90;5.50;;;10.40;21.90;;;;;;20602;6892;67777;-88
2022/03/08 10:11:00;;;;;;;6.43;6.03;;;10.50;22.00;;;;;;20554;6892;117263;-89
2022/03/08 10:13:35;;;;;;;5.83;5.43;;;10.40;21.90;;;;;;20448;6889;117640;-87
2022/03/08 10:16:23;;;;;;;6.55;6.05;;;10.30;22.10;;;;;;20373;6889;338290;-87
2022/03/08 10:18:47;;;;;;;5.70;5.23;;;10.50;21.50;;;;;;20565;6884;117963;-87
2022/03/08 10:21:32;;;;;;;6.12;5.72;;;10.50;21.40;;;;;;20386;6883;314051;-86
2022/03/08 10:23:58;;;;;;;6.10;5.67;;;10.60;21.20;;;;;;20606;6883;122063;-87
2022/03/08 10:26:26;;;;;;;5.70;5.30;;;10.70;21.50;;;;;;20581;6883;121558;-86
2022/03/08 10:28:51;;;;;;;6.07;5.57;;;10.70;21.60;;;;;;20574;6882;133301;-88
2022/03/08 10:31:17;;;;;;;9.40;8.70;;;10.60;21.60;;;;;;20399;6882;288453;-89
2022/03/08 10:33:43;;;;;;;6.20;5.80;;;10.80;20.60;;;;;;20394;6884;305370;-87
2022/03/08 10:36:20;;;;;;;6.30;5.77;;;11.10;20.60;;;;;;20606;6884;118375;-85
2022/03/08 10:39:01;;;;;;;6.80;6.30;;;11.10;21.00;;;;;;20591;6883;118153;-86
2022/03/08 10:41:26;;;;;;;6.70;6.30;;;11.00;21.20;;;;;;20360;6883;310442;-87
2022/03/08 10:43:52;;;;;;;7.18;6.60;;;11.10;20.30;;;;;;20392;6883;312963;-86
2022/03/08 10:46:17;;;;;;;6.87;6.47;;;11.40;20.30;;;;;;20409;6883;279665;-86
2022/03/08 10:48:43;;;;;;;6.87;6.28;;;11.60;20.60;;;;;;20617;6884;117787;-85
2022/03/08 10:51:14;;;;;;;6.93;6.53;;;11.60;20.70;;;;;;20449;6882;278785;-90
2022/03/08 10:53:37;;;;;;;7.53;6.90;;;11.70;20.00;;;;;;20423;6882;282527;-87
2022/03/08 10:56:03;;;;;;;6.90;6.43;;;11.80;19.40;;;;;;20394;6884;309627;-87
2022/03/08 10:58:28;;;;;;;7.17;6.57;;;11.90;19.40;;;;;;20391;6884;339498;-87
2022/03/08 11:00:54;;;;;;;7.40;6.80;;;12.00;19.40;;;;;;20400;6884;323873;-86
2022/03/08 11:03:22;;;;;;;7.30;6.70;;;12.10;19.50;;;;;;20613;6884;117483;-86
2022/03/08 11:05:48;;;;;;;6.83;6.13;;;11.90;19.60;;;;;;20612;6882;116495;-86
2022/03/08 11:08:15;;;;;;;6.65;6.25;;;11.30;20.10;;;;;;20602;6882;117879;-88
2022/03/08 11:10:40;;;;;;;6.10;5.70;;;11.30;20.00;;;;;;20622;6879;117581;-88
2022/03/08 11:13:06;;;;;;;5.97;5.57;;;11.20;20.30;;;;;;20604;6879;123043;-88
2022/03/08 11:15:31;;;;;;;7.60;7.00;;;11.10;20.70;;;;;;20625;6879;117818;-88
2022/03/08 11:17:59;;;;;;;8.33;7.73;;;11.20;20.30;;;;;;20410;6879;311800;-89
2022/03/08 11:20:24;;;;;;;7.77;7.13;;;11.20;20.30;;;;;;20406;6879;309391;-89
2022/03/08 11:22:51;;;;;;;6.57;6.07;;;11.50;20.00;;;;;;20608;6879;117936;-89
2022/03/08 11:25:16;;;;;;;7.10;6.60;;;11.30;20.00;;;;;;20615;6879;119116;-93
2022/03/08 11:27:42;;;;;;;7.33;6.83;;;11.40;20.00;;;;;;20650;6879;116631;-89
2022/03/08 11:30:09;;;;;;;7.13;6.53;;;11.10;20.60;;;;;;20657;6879;117879;-86
2022/03/08 11:32:58;;;;;;;7.40;6.90;;;11.10;20.60;;;;;;20451;6879;307948;-86
2022/03/08 11:35:37;;;;;;;6.70;6.20;;;11.20;20.20;;;;;;20669;6879;117495;-87
2022/03/08 11:38:02;;;;;;;6.80;6.30;;;11.20;20.20;;;;;;20637;6879;116601;-88
2022/03/08 11:40:28;;;;;;;6.90;6.50;;;11.10;20.30;;;;;;20450;6879;308304;-87
2022/03/08 11:42:53;;;;;;;7.17;6.47;;;11.30;20.30;;;;;;20663;6879;123498;-92
2022/03/08 11:45:22;;;;;;;6.53;6.03;;;11.30;19.90;;;;;;20651;6879;116602;-91
2022/03/08 11:48:00;;;;;;;7.30;6.70;;;11.20;20.10;;;;;;20701;6879;68878;-91
2022/03/08 11:50:32;;;;;;;6.47;5.97;;;11.10;20.40;;;;;;20682;6879;116544;-87
2022/03/08 11:53:08;;;;;;;7.00;6.50;;;11.00;20.60;;;;;;20420;6879;279302;-89
2022/03/08 11:55:33;;;;;;;6.22;5.68;;;11.20;19.40;;;;;;20437;6879;293819;-88
2022/03/08 11:57:59;;;;;;;6.87;6.47;;;11.50;18.80;;;;;;20245;6877;339404;-87
2022/03/08 12:00:32;;;;;;;6.50;6.07;;;11.80;19.10;;;;;;20372;6878;313823;-88
2022/03/08 12:02:57;;;;;;;6.37;5.97;;;12.00;19.40;;;;;;20381;6878;279722;-87
2022/03/08 12:05:48;;;;;;;6.47;6.07;;;12.20;19.50;;;;;;20418;6878;306913;-86
2022/03/08 12:08:27;;;;;;;6.07;5.67;;;12.40;18.90;;;;;;20624;6878;117906;-87
2022/03/08 12:11:03;;;;;;;5.97;5.57;;;12.20;19.00;;;;;;20613;6878;121711;-88
2022/03/08 12:13:32;;;;;;;5.97;5.57;;;11.90;19.20;;;;;;20629;6878;117610;-88
2022/03/08 12:16:12;;;;;;;6.70;6.30;;;11.60;19.40;;;;;;20423;6878;284652;-88
2022/03/08 12:18:47;;;;;;;7.90;7.40;;;11.60;19.50;;;;;;20422;6879;282647;-91
2022/03/08 12:21:21;;;;;;;6.67;6.17;;;12.10;18.90;;;;;;20422;6879;308930;-89
2022/03/08 12:24:13;;;;;;;6.57;6.07;;;12.10;18.90;;;;;;20647;6879;117447;-92
2022/03/08 12:26:38;;;;;;;6.80;6.20;;;12.00;19.20;;;;;;20683;6879;116973;-90
2022/03/08 12:29:11;;;;;;;9.40;8.60;;;11.80;19.70;;;;;;20466;6879;311930;-89
2022/03/08 12:32:01;;;;;;;8.13;7.53;;;11.80;19.30;;;;;;20619;6879;117789;-88
2022/03/08 12:34:46;;;;;;;6.80;6.30;;;11.80;19.10;;;;;;20419;6879;309114;-88
2022/03/08 12:37:18;;;;;;;6.73;6.33;;;11.90;19.40;;;;;;20412;6879;280134;-87
2022/03/08 12:40:00;;;;;;;7.00;6.50;;;12.20;19.50;;;;;;20562;6879;68088;-89
2022/03/08 12:42:39;;;;;;;6.80;6.40;;;12.10;19.50;;;;;;20397;6879;308264;-88
2022/03/08 12:45:27;;;;;;;10.80;6.60;;;12.10;18.90;;;;;;20595;6879;123083;-88
2022/03/08 12:48:16;;;;;;;7.27;6.77;;;12.00;19.00;;;;;;20624;6879;118776;-88
2022/03/08 12:50:45;;;;;;;8.57;7.87;;;11.70;18.90;;;;;;20407;6875;284637;-89
2022/03/08 12:53:25;;;;;;;10.37;7.60;;;11.70;19.00;;;;;;20399;6875;313466;-90
2022/03/08 12:55:53;;;;;;;7.47;6.97;;;12.00;19.30;;;;;;20570;6889;118776;-88
2022/03/08 12:58:22;;;;;;;7.33;6.83;;;11.80;19.20;;;;;;20367;6891;309092;-88
2022/03/08 13:01:01;;;;;;;7.57;7.07;;;11.90;19.00;;;;;;20558;6888;117818;-88
2022/03/08 13:03:29;;;;;;;7.87;7.17;;;11.80;19.00;;;;;;20580;6888;118145;-89
2022/03/08 13:05:56;;;;;;;7.73;7.13;;;11.60;19.10;;;;;;20352;6888;315085;-90
2022/03/08 13:08:21;;;;;;;7.17;6.60;;;11.60;19.10;;;;;;20403;6882;280034;-89
2022/03/08 13:10:50;;;;;;;7.55;6.95;;;11.90;19.10;;;;;;20583;6882;117910;-90
2022/03/08 13:13:16;;;;;;;6.70;6.10;;;11.90;18.90;;;;;;20616;6882;117627;-88
2022/03/08 13:15:43;;;;;;;10.60;6.40;;;11.50;19.40;;;;;;20621;6882;117379;-87
2022/03/08 13:18:11;;;;;;;9.67;8.90;;;11.50;19.40;;;;;;20628;6877;117557;-87
2022/03/08 13:20:40;;;;;;;8.15;7.57;;;11.40;19.80;;;;;;20432;6878;309139;-90
2022/03/08 13:23:17;;;;;;;7.57;7.03;;;11.50;19.50;;;;;;20403;6878;279678;-89
2022/03/08 13:25:41;;;;;;;6.83;6.33;;;11.80;19.20;;;;;;20607;6878;123338;-91
2022/03/08 13:28:11;;;;;;;7.40;6.80;;;11.80;19.30;;;;;;20413;6878;306743;-87
2022/03/08 13:30:36;;;;;;;7.80;7.30;;;11.90;19.20;;;;;;20410;6878;308247;-87
2022/03/08 13:33:18;;;;;;;6.57;6.17;;;12.20;19.10;;;;;;20575;6878;117689;-86
2022/03/08 13:36:06;;;;;;;8.93;7.93;;;12.10;19.30;;;;;;20625;6878;118019;-87
2022/03/08 13:38:34;;;;;;;7.03;6.53;;;11.90;19.30;;;;;;19391;7223;291175;-89
2022/03/08 13:41:00;;;;;;;6.20;5.80;;;11.90;18.80;;;;;;19880;6878;280895;-87
2022/03/08 13:43:26;;;;;;;5.93;5.40;;;12.20;18.70;;;;;;20621;6878;118717;-86
2022/03/08 13:45:52;;;;;;;6.50;5.90;;;12.10;18.70;;;;;;20630;6878;117468;-87
2022/03/08 13:48:18;;;;;;;5.53;5.23;;;11.90;18.90;;;;;;20635;6878;117473;-86
2022/03/08 13:50:43;;;;;;;5.85;5.53;;;11.70;19.10;;;;;;20399;6878;338903;-87
2022/03/08 13:53:10;;;;;;;6.40;5.90;;;11.80;18.40;;;;;;20415;6878;312228;-87